ADDS METAR Data INFO
IDs: Format: Raw Decoded Include TAF

Data at: 1810 UTC 14 Aug 2018

PAHX 141756Z AUTO 25003KT 10SM BKN003 OVC017 12/12 A2964 RMK AO2 SLP035 60000 T01220122 10122 20111 52012
PAHX 141721Z AUTO 22003KT 10SM SCT003 BKN008 OVC039 12/12 A2963 RMK AO2
PAHX 141620Z AUTO 24003KT 6SM BR SCT001 BKN006 OVC080 12/11 A2962 RMK AO2
PAHX 141427Z AUTO 00000KT 1/4SM FG OVC003 12/11 A2960 RMK AO2
PAHX 141412Z AUTO 34004KT 1/2SM FG OVC003 12/11 A2959 RMK AO2
PAHX 141404Z AUTO 33004KT 3/4SM BR OVC003 12/12 A2959 RMK AO2
PAHX 141341Z AUTO 35004KT 1 1/4SM BR OVC003 12/12 A2959 RMK AO2
PAHX 141324Z AUTO 35004KT 3/4SM BR OVC003 12/12 A2958 RMK AO2
PAHX 141318Z AUTO 34003KT 1 3/4SM BR OVC003 12/12 A2958 RMK AO2
PAHX 141256Z AUTO 35005KT 9SM OVC003 12/12 A2958 RMK AO2 SLP016 T01170117
PAHX 141205Z AUTO 36005KT 7SM OVC003 12/12 A2957 RMK AO2
PAHX 141156Z AUTO 36005KT 2SM BR OVC003 12/12 A2957 RMK AO2 RAB20E53 SLP012 P0000 60005 70018 T01220122 10128 20122 51014
PAHX 141056Z AUTO 36005KT 1 3/4SM BR OVC003 12/12 A2955 RMK AO2 RAE40 SLP008 P0001 T01220122
PAHX 141045Z AUTO 36005KT 1 1/2SM BR OVC003 12/12 A2955 RMK AO2 RAE40 P0001
PAHX 141038Z AUTO 36005KT 2SM -RA BR OVC003 12/12 A2955 RMK AO2 P0000
PAHX 141030Z AUTO 36005KT 1 3/4SM -RA BR OVC003 13/12 A2955 RMK AO2 P0000
PAHX 140956Z AUTO 01003KT 1SM -RA BR OVC003 13/13 A2954 RMK AO2 SLP004 P0004 T01280128
PAHX 140937Z AUTO 01004KT 1 1/4SM -RA BR OVC003 13/12 A2954 RMK AO2 P0003
PAHX 140927Z AUTO 01005KT 3/4SM -RA BR OVC003 13/13 A2954 RMK AO2 P0002
PAHX 140915Z AUTO 01004KT 1 3/4SM -RA BR OVC003 13/12 A2953 RMK AO2 P0001
PAHX 140828Z AUTO 01003KT 10SM BKN003 OVC011 13/12 A2952 RMK AO2 RAB06E18 P0000
PAHX 140820Z AUTO 36004KT 10SM SCT003 OVC011 13/12 A2952 RMK AO2 RAB06E18 P0000
PAHX 140756Z AUTO 02004KT 10SM OVC011 13/12 A2951 RMK AO2 RAE06 SLP993 P0000 T01280122
PAHX 140656Z AUTO 03004KT 10SM -RA BKN013 BKN018 OVC024 13/13 A2950 RMK AO2 RAB03 SLP989 P0000 T01280128
PAHX 140622Z AUTO 00000KT 10SM -RA BKN013 BKN024 OVC085 13/13 A2949 RMK AO2 RAB03 P0000
PAHX 140556Z AUTO 07003KT 10SM FEW022 OVC085 13/13 A2948 RMK AO2 RAE46 SLP983 P0001 60005 T01330128 10144 20133 53012
PAHX 140332Z AUTO 00000KT 10SM BKN019 OVC070 14/13 A2945 RMK AO2
PAHX 140256Z AUTO 13004KT 10SM FEW019 BKN065 OVC075 14/13 A2944 RMK AO2 RAE50 SLP970 P0001 60004 T01390128 53013
PAHX 140236Z AUTO 13003KT 8SM -RA FEW016 SCT022 OVC060 14/13 A2944 RMK AO2 P0000
PAHX 140228Z AUTO 17003KT 10SM -RA SCT016 BKN023 OVC049 14/12 A2944 RMK AO2 P0000
PAHX 140208Z AUTO VRB03KT 5SM -RA BR SCT013 BKN040 OVC049 14/13 A2943 RMK AO2 P0000
PAHX 140156Z AUTO 18005KT 5SM -RA BR FEW007 BKN012 OVC024 14/13 A2943 RMK AO2 RAE0057B13E30B55 SLP966 P0000 T01390128
PAHX 140107Z AUTO 15007KT 10SM SCT009 BKN013 OVC055 14/13 A2942 RMK AO2 RAE0057
PAHX 140056Z AUTO 12005KT 10SM -RA SCT011 BKN039 OVC055 14/13 A2942 RMK AO2 SLP962 P0003 T01390128
PAHX 140049Z AUTO 14004KT 10SM -RA SCT011 BKN025 OVC055 14/13 A2942 RMK AO2 P0002
PAHX 132356Z AUTO 21006KT 7SM -RA FEW006 BKN012 OVC048 14/13 A2941 RMK AO2 RAB11 SLP958 P0000 60007 T01390128 10139 20122 51014
PAHX 132245Z AUTO 16005KT 8SM SCT009 OVC014 13/12 A2940 RMK AO2 RAE45 P0001
PAHX 132215Z AUTO 15007KT 10SM -RA BKN007 BKN012 OVC018 13/12 A2939 RMK AO2 CIG 005V009 P0001
PAHX 132156Z AUTO 16009KT 5SM -RA BR BKN005 OVC011 13/12 A2938 RMK AO2 CIG 003V010 SLP949 P0003 T01280122
PAHX 132146Z AUTO 14006KT 4SM -RA BR BKN005 OVC011 13/12 A2938 RMK AO2 CIG 003V008 P0003
PAHX 132056Z AUTO 15008KT 6SM -RA BR OVC007 12/12 A2937 RMK AO2 CIG 004V010 SLP944 P0003 60003 T01220117 53018
PAHX 132008Z AUTO 14009KT 5SM -RA BR BKN007 OVC014 12/12 A2935 RMK AO2 CIG 005V009 P0000
PAHX 131950Z AUTO 13007KT 7SM -RA SCT007 BKN015 OVC021 12/12 A2935 RMK AO2 RAB10 P0000
PAHX 131937Z AUTO 16007KT 10SM -RA BKN009 BKN016 OVC021 12/11 A2934 RMK AO2 RAB10 CIG 005V013 P0000
PAHX 131856Z AUTO 14009KT 10SM OVC013 12/11 A2933 RMK AO2 SLP931 T01220106
PAHX 131845Z AUTO 14008KT 10SM OVC011 12/11 A2932 RMK AO2
PAHX 131756Z AUTO 15009KT 10SM OVC009 12/11 A2931 RMK AO2 SLP926 60001 T01220106 10122 20106 53013
PAHX 131734Z AUTO 15010KT 10SM OVC009 12/11 A2930 RMK AO2
PAHX 131715Z AUTO 14009KT 10SM OVC011 12/11 A2930 RMK AO2 CIG 008V013
PAHX 131656Z AUTO 14008KT 10SM OVC009 12/11 A2930 RMK AO2 RAE17 CIG 008V014 SLP921 P0001 T01170106
PAHX 131604Z AUTO 14009KT 10SM -RA BKN011 OVC016 11/10 A2929 RMK AO2 P0000
PAHX 131556Z AUTO 14008KT 8SM -RA SCT011 OVC016 11/10 A2929 RMK AO2 RAE22B50 SLP918 P0000 T01110100
PAHX 131548Z AUTO 14009KT 10SM OVC015 11/10 A2929 RMK AO2 RAE22 P0000
PAHX 131513Z AUTO 14008KT 10SM -RA BKN011 OVC018 11/10 A2928 RMK AO2 P0000
PAHX 131456Z AUTO 14009KT 10SM -RA FEW011 BKN018 OVC023 11/10 A2928 RMK AO2 RAB27 SLP913 P0000 60000 T01110100 53006
PAHX 131356Z AUTO 14008KT 10SM OVC028 11/10 A2927 RMK AO2 RAE28 SLP911 P0000 T01110100
PAHX 131256Z AUTO 14008KT 10SM -RA OVC024 11/10 A2926 RMK AO2 SLP909 P0000 T01110100
PAHX 131240Z AUTO 13006KT 10SM -RA BKN026 BKN032 OVC039 11/10 A2926 RMK AO2 P0000
PAHX 131156Z AUTO 13006KT 10SM -RA FEW024 SCT031 OVC041 11/10 A2926 RMK AO2 RAB20 SLP907 P0000 60000 70049 T01110100 10133 20111 51008
PAHX 131056Z AUTO 13007KT 10SM SCT026 BKN040 OVC060 11/10 A2925 RMK AO2 RAB04E32 SLP905 P0000 T01110100
PAHX 131036Z AUTO 12008KT 10SM FEW026 OVC060 11/10 A2925 RMK AO2 RAB04E32 P0000
PAHX 130956Z AUTO 12006KT 10SM OVC026 12/09 A2925 RMK AO2 RAE03 SLP904 P0000 T01170094
PAHX 130934Z AUTO 13006KT 10SM BKN028 OVC065 12/10 A2924 RMK AO2 RAE03 P0000
PAHX 130856Z AUTO 14007KT 10SM -RA OVC030 12/10 A2923 RMK AO2 RAE00B35 SLP900 P0000 60000 T01170100 401780117 51010
PAHX 130756Z AUTO 14005KT 10SM -RA OVC034 12/11 A2923 RMK AO2 RAB31 SLP896 P0000 T01170106